Time;durP1;ratioP1;P1;durP2;ratioP2;P2;SDS_P1;SDS_P2;PMS_P1;PMS_P2;Temp;Humidity;BMP_temperature;BMP_pressure;BME280_temperature;BME280_humidity;BME280_pressure;Samples;Min_cycle;Max_cycle;Signal;HPM_P1;HPM_P2
2022/01/28 00:00:13;;;;;;;9.70;6.75;;;5.30;99.90;;;;;;5054321;28;20214;-68
2022/01/28 00:02:59;;;;;;;9.73;7.20;;;5.30;99.90;;;;;;5054533;28;20203;-68
2022/01/28 00:05:27;;;;;;;11.20;8.38;;;5.30;99.90;;;;;;5054558;28;20231;-68
2022/01/28 00:07:55;;;;;;;9.90;6.82;;;5.20;99.90;;;;;;5054450;28;20207;-68
2022/01/28 00:10:24;;;;;;;9.57;6.70;;;5.20;99.90;;;;;;5053930;28;20253;-68
2022/01/28 00:15:36;;;;;;;11.90;7.22;;;5.30;99.90;;;;;;5071206;28;20215;-67
2022/01/28 00:21:05;;;;;;;8.88;6.40;;;5.40;99.90;;;;;;5071717;28;20661;-67
2022/01/28 00:40:14;;;;;;;8.68;6.35;;;5.60;99.90;;;;;;5073573;28;20248;-67
2022/01/28 00:42:41;;;;;;;9.45;6.70;;;5.50;99.90;;;;;;5074237;28;20210;-67
2022/01/28 00:45:08;;;;;;;8.40;5.95;;;5.60;99.90;;;;;;5073883;28;20313;-67
2022/01/28 00:47:35;;;;;;;4.30;3.55;;;5.60;99.90;;;;;;5073781;28;20229;-67
2022/01/28 00:50:02;;;;;;;9.45;6.80;;;5.50;99.90;;;;;;5073525;28;20297;-67
2022/01/28 00:52:30;;;;;;;11.25;6.88;;;5.50;99.90;;;;;;5073594;28;20206;-67
2022/01/28 00:54:57;;;;;;;8.05;6.22;;;5.50;99.90;;;;;;5073821;28;20313;-68
2022/01/28 00:57:24;;;;;;;8.18;5.30;;;5.60;99.90;;;;;;5073577;28;20202;-68
2022/01/28 00:59:51;;;;;;;8.07;6.43;;;5.60;99.90;;;;;;5072864;28;20297;-68
2022/01/28 01:02:18;;;;;;;8.15;5.28;;;5.60;99.90;;;;;;5073548;28;20554;-68
2022/01/28 01:04:45;;;;;;;7.53;5.88;;;5.60;99.90;;;;;;5073661;28;20222;-68
2022/01/28 01:07:12;;;;;;;8.15;5.72;;;5.60;99.90;;;;;;5073190;28;20579;-68
2022/01/28 01:09:40;;;;;;;6.93;5.72;;;5.60;99.90;;;;;;5073605;28;20207;-67
2022/01/28 01:12:08;;;;;;;8.70;5.63;;;5.60;99.90;;;;;;5073230;28;20209;-68
2022/01/28 01:14:34;;;;;;;7.55;6.03;;;5.60;99.90;;;;;;5073387;28;20222;-68
2022/01/28 01:17:14;;;;;;;6.07;5.15;;;5.60;99.90;;;;;;5072712;28;20289;-68
2022/01/28 01:19:45;;;;;;;9.07;6.35;;;5.60;99.90;;;;;;5072801;28;20206;-68
2022/01/28 01:22:12;;;;;;;7.60;6.18;;;5.50;99.90;;;;;;5073265;28;20230;-67
2022/01/28 01:24:49;;;;;;;8.15;6.25;;;5.50;99.90;;;;;;5073368;28;20223;-67
2022/01/28 01:27:17;;;;;;;8.80;6.13;;;5.50;99.90;;;;;;5072757;28;20583;-67
2022/01/28 01:29:46;;;;;;;7.97;6.47;;;5.40;99.90;;;;;;5072610;28;20199;-68
2022/01/28 01:32:15;;;;;;;8.73;5.60;;;5.40;99.90;;;;;;5073683;28;20203;-67
2022/01/28 01:34:42;;;;;;;9.60;6.50;;;5.40;99.90;;;;;;5073328;28;20226;-67
2022/01/28 01:37:10;;;;;;;10.48;7.47;;;5.40;99.90;;;;;;5072900;28;20205;-68
2022/01/28 01:39:38;;;;;;;7.72;5.88;;;5.30;99.90;;;;;;5072588;28;20202;-67
2022/01/28 01:42:16;;;;;;;9.00;5.60;;;5.30;99.90;;;;;;5072747;28;20214;-68
2022/01/28 01:45:15;;;;;;;7.93;6.80;;;5.30;99.90;;;;;;5073492;28;20230;-67
2022/01/28 01:53:09;;;;;;;9.60;6.00;;;5.30;99.90;;;;;;5047120;28;20230;-68
2022/01/28 01:55:36;;;;;;;9.13;6.35;;;5.20;99.90;;;;;;5073148;28;20230;-67
2022/01/28 01:58:04;;;;;;;9.40;6.30;;;5.20;99.90;;;;;;5073306;28;20195;-67
2022/01/28 02:00:31;;;;;;;8.52;6.30;;;5.30;99.90;;;;;;5072475;28;20245;-68
2022/01/28 02:02:58;;;;;;;7.88;5.75;;;5.20;99.90;;;;;;5072406;28;20601;-68
2022/01/28 02:05:25;;;;;;;8.55;6.00;;;5.30;99.90;;;;;;5072897;28;20226;-68
2022/01/28 02:07:52;;;;;;;4.57;3.78;;;5.20;99.90;;;;;;5072559;28;20226;-68
2022/01/28 02:10:18;;;;;;;8.85;6.43;;;5.20;99.90;;;;;;5071874;28;20294;-68
2022/01/28 02:12:47;;;;;;;6.75;5.10;;;5.30;99.90;;;;;;5072305;28;20198;-68
2022/01/28 02:15:16;;;;;;;7.30;5.43;;;5.30;99.90;;;;;;5072502;28;20223;-68
2022/01/28 02:17:44;;;;;;;7.30;5.72;;;5.20;99.90;;;;;;5072573;28;20297;-68
2022/01/28 02:20:17;;;;;;;7.00;5.28;;;5.20;99.90;;;;;;5073469;28;20203;-67
2022/01/28 02:22:45;;;;;;;8.65;6.00;;;5.20;99.90;;;;;;5073738;28;20199;-67
2022/01/28 02:25:21;;;;;;;7.65;6.20;;;5.20;99.90;;;;;;5073480;28;20222;-67
2022/01/28 02:27:48;;;;;;;7.22;5.43;;;5.20;99.90;;;;;;5073165;28;20688;-70
2022/01/28 02:30:15;;;;;;;7.63;5.90;;;5.20;99.90;;;;;;5073372;28;20213;-68
2022/01/28 02:32:43;;;;;;;7.20;5.10;;;5.10;99.90;;;;;;5073360;28;20230;-68
2022/01/28 02:35:10;;;;;;;7.75;6.25;;;5.10;99.90;;;;;;5073093;28;20223;-68
2022/01/28 02:37:38;;;;;;;7.75;5.45;;;5.10;99.90;;;;;;5073207;28;20222;-68
2022/01/28 02:40:06;;;;;;;6.63;5.63;;;5.10;99.90;;;;;;5073328;28;20199;-68
2022/01/28 02:42:46;;;;;;;8.63;5.97;;;5.10;99.90;;;;;;5075057;28;20301;-68
2022/01/28 02:45:23;;;;;;;7.50;5.75;;;5.10;99.90;;;;;;5077070;28;20276;-68
2022/01/28 02:47:55;;;;;;;7.90;5.95;;;5.00;99.90;;;;;;5076906;28;20301;-68
2022/01/28 02:50:22;;;;;;;8.70;6.20;;;5.00;99.90;;;;;;5076735;28;20248;-68
2022/01/28 02:53:02;;;;;;;7.43;5.60;;;5.00;99.90;;;;;;5076937;28;20617;-68
2022/01/28 02:55:31;;;;;;;8.10;5.60;;;5.00;99.90;;;;;;5076588;28;20233;-68
2022/01/28 02:58:15;;;;;;;6.40;5.20;;;5.00;99.90;;;;;;5076753;28;20569;-68
2022/01/28 03:00:41;;;;;;;8.50;5.93;;;4.90;99.90;;;;;;5076543;28;20210;-68
2022/01/28 03:03:08;;;;;;;7.53;5.60;;;4.90;99.90;;;;;;5076774;28;20205;-68
2022/01/28 03:05:35;;;;;;;6.85;5.75;;;4.90;99.90;;;;;;5076439;28;20227;-68
2022/01/28 03:08:05;;;;;;;7.40;5.60;;;4.90;99.90;;;;;;5076708;28;20561;-68
2022/01/28 03:10:42;;;;;;;8.68;5.55;;;4.90;99.90;;;;;;5076405;28;20253;-68
2022/01/28 03:15:55;;;;;;;6.55;4.80;;;4.90;99.90;;;;;;5076437;28;20209;-68
2022/01/28 03:18:28;;;;;;;7.45;5.10;;;4.90;99.90;;;;;;5076184;28;20217;-68
2022/01/28 03:21:00;;;;;;;7.60;6.00;;;5.00;99.90;;;;;;5076177;28;20256;-68
2022/01/28 03:23:28;;;;;;;6.97;4.80;;;4.90;99.90;;;;;;5076281;28;20199;-68
2022/01/28 03:25:55;;;;;;;8.07;5.28;;;5.00;99.90;;;;;;5076578;28;20206;-68
2022/01/28 03:28:22;;;;;;;6.40;5.80;;;5.00;99.90;;;;;;5076219;28;20310;-68
2022/01/28 03:30:49;;;;;;;8.68;5.90;;;5.00;99.90;;;;;;5076264;28;20207;-68
2022/01/28 03:33:16;;;;;;;8.60;5.68;;;5.00;99.90;;;;;;5076391;28;20388;-68
2022/01/28 03:35:43;;;;;;;7.75;5.88;;;5.00;99.90;;;;;;5075875;28;20726;-68
2022/01/28 03:38:12;;;;;;;7.18;5.43;;;5.00;99.90;;;;;;5076439;28;20195;-68
2022/01/28 03:40:42;;;;;;;8.80;5.40;;;5.10;99.90;;;;;;5075764;28;20208;-68
2022/01/28 03:43:09;;;;;;;15.20;8.80;;;5.00;99.90;;;;;;5076120;28;20202;-68
2022/01/28 03:45:36;;;;;;;7.90;5.82;;;5.10;99.90;;;;;;5076084;28;20258;-67
2022/01/28 03:48:03;;;;;;;8.88;6.10;;;5.10;99.90;;;;;;5075849;28;20238;-67
2022/01/28 03:50:32;;;;;;;6.78;5.43;;;5.20;99.90;;;;;;5075483;28;20657;-68
2022/01/28 03:53:00;;;;;;;7.85;5.18;;;5.20;99.90;;;;;;5075025;28;20198;-68
2022/01/28 03:55:27;;;;;;;9.00;5.68;;;5.20;99.90;;;;;;5075356;28;20635;-68
2022/01/28 03:57:55;;;;;;;9.45;6.15;;;5.20;99.90;;;;;;5075976;28;20200;-67
2022/01/28 04:00:25;;;;;;;8.13;6.18;;;5.20;99.90;;;;;;5075389;28;20209;-68
2022/01/28 04:03:02;;;;;;;8.20;6.40;;;5.20;99.90;;;;;;5075665;28;20629;-68
2022/01/28 04:11:31;;;;;;;10.30;5.95;;;5.20;99.90;;;;;;5013511;28;20193;-68
2022/01/28 04:14:10;;;;;;;6.70;5.30;;;5.20;99.90;;;;;;5013691;28;20263;-68
2022/01/28 04:19:22;;;;;;;8.70;6.10;;;5.20;99.90;;;;;;5075882;28;20202;-68
2022/01/28 04:21:49;;;;;;;9.13;5.05;;;5.30;99.90;;;;;;5075649;28;20680;-67
2022/01/28 04:24:16;;;;;;;9.15;5.95;;;5.20;99.90;;;;;;5075889;28;20233;-67
2022/01/28 04:26:43;;;;;;;7.57;6.18;;;5.20;99.90;;;;;;5075308;28;20313;-67
2022/01/28 04:29:11;;;;;;;7.22;6.22;;;5.20;99.90;;;;;;5075241;28;20199;-67
2022/01/28 04:31:42;;;;;;;7.13;6.05;;;5.20;99.90;;;;;;5075763;28;20202;-68
2022/01/28 04:34:09;;;;;;;8.35;6.00;;;5.10;99.90;;;;;;5075209;28;20234;-67
2022/01/28 04:36:43;;;;;;;10.52;6.22;;;5.10;99.90;;;;;;5075113;28;20202;-67
2022/01/28 04:39:16;;;;;;;8.30;4.80;;;5.10;99.90;;;;;;5074840;28;20198;-67
2022/01/28 04:41:54;;;;;;;10.25;6.70;;;5.10;99.90;;;;;;5074759;28;20241;-68
2022/01/28 04:44:29;;;;;;;11.65;7.22;;;5.00;99.90;;;;;;5074729;28;20589;-68
2022/01/28 04:47:02;;;;;;;8.27;5.90;;;5.00;99.90;;;;;;5074559;28;20285;-67
2022/01/28 04:49:40;;;;;;;11.13;6.35;;;5.00;99.90;;;;;;5074745;28;20206;-68
2022/01/28 04:55:02;;;;;;;8.13;5.60;;;4.90;99.90;;;;;;5074169;28;20222;-67
2022/01/28 04:57:37;;;;;;;8.32;6.50;;;4.80;99.90;;;;;;5074529;28;20203;-68
2022/01/28 05:00:15;;;;;;;9.38;6.05;;;4.80;99.90;;;;;;5074090;28;20319;-68
2022/01/28 05:03:13;;;;;;;9.07;5.22;;;4.80;99.90;;;;;;5074361;28;20211;-68
2022/01/28 05:06:20;;;;;;;11.02;6.53;;;4.80;99.90;;;;;;5073867;28;20219;-68
2022/01/28 05:09:22;;;;;;;9.57;6.75;;;4.80;99.90;;;;;;5073950;28;20248;-67
2022/01/28 05:12:36;;;;;;;7.28;4.38;;;4.70;99.90;;;;;;5073861;28;20607;-68
2022/01/28 05:15:28;;;;;;;9.23;6.15;;;4.70;99.90;;;;;;5073850;28;20242;-68
2022/01/28 05:24:03;;;;;;;8.80;6.45;;;4.70;99.90;;;;;;5073965;28;20673;-68
2022/01/28 05:26:25;;;;;;;11.20;6.13;;;4.70;99.90;;;;;;5073844;28;20198;-67
2022/01/28 05:28:52;;;;;;;9.55;5.95;;;4.60;99.90;;;;;;5074251;28;20257;-67
2022/01/28 05:31:19;;;;;;;8.85;6.78;;;4.70;99.90;;;;;;5073575;28;20198;-67
2022/01/28 05:33:48;;;;;;;10.38;7.05;;;4.60;99.90;;;;;;5073848;28;20801;-68
2022/01/28 05:36:15;;;;;;;5.55;4.47;;;4.70;99.90;;;;;;5074030;28;20573;-67
2022/01/28 05:38:42;;;;;;;9.30;7.13;;;4.70;99.90;;;;;;5073816;28;20199;-67
2022/01/28 05:41:09;;;;;;;9.63;6.47;;;4.70;99.90;;;;;;5073547;28;20205;-68
2022/01/28 05:43:36;;;;;;;10.45;6.82;;;4.70;99.90;;;;;;5073935;28;20208;-67
2022/01/28 05:46:04;;;;;;;10.95;6.82;;;4.70;99.90;;;;;;5073870;28;20293;-67
2022/01/28 05:48:30;;;;;;;11.82;7.22;;;4.60;99.90;;;;;;5073641;28;20223;-68
2022/01/28 05:50:58;;;;;;;9.15;6.45;;;4.60;99.90;;;;;;5073542;28;20298;-67
2022/01/28 05:53:25;;;;;;;11.48;7.57;;;4.60;99.90;;;;;;5073769;28;20560;-67
2022/01/28 05:55:52;;;;;;;8.20;6.57;;;4.50;99.90;;;;;;5073624;28;20212;-67
2022/01/28 05:58:19;;;;;;;9.90;4.55;;;4.60;99.90;;;;;;5073668;28;20294;-68
2022/01/28 06:00:46;;;;;;;10.35;6.72;;;4.50;99.90;;;;;;5073573;28;20206;-67
2022/01/28 06:03:13;;;;;;;9.07;6.93;;;4.50;99.90;;;;;;5073744;28;20211;-67
2022/01/28 06:05:40;;;;;;;9.23;6.03;;;4.50;99.90;;;;;;5073618;28;20229;-67
2022/01/28 06:08:08;;;;;;;18.80;12.35;;;4.50;99.90;;;;;;5073566;28;20649;-67
2022/01/28 06:10:35;;;;;;;10.23;6.70;;;4.50;99.90;;;;;;5073363;28;20315;-68
2022/01/28 06:13:02;;;;;;;10.77;6.35;;;4.50;99.90;;;;;;5074041;28;20389;-68
2022/01/28 06:15:29;;;;;;;12.38;7.15;;;4.50;99.90;;;;;;5073599;28;20230;-67
2022/01/28 06:17:55;;;;;;;13.07;7.90;;;4.50;99.90;;;;;;5076025;28;20694;-68
2022/01/28 06:20:22;;;;;;;8.38;5.05;;;4.50;99.90;;;;;;5077186;28;20210;-67
2022/01/28 06:22:49;;;;;;;11.95;7.63;;;4.50;99.90;;;;;;5077677;28;20225;-68
2022/01/28 06:25:18;;;;;;;5.43;3.38;;;4.50;99.90;;;;;;5077252;28;20588;-67
2022/01/28 06:27:45;;;;;;;10.98;7.28;;;4.50;99.90;;;;;;5077255;28;20260;-68
2022/01/28 06:30:13;;;;;;;9.95;7.40;;;4.50;99.90;;;;;;5077190;28;20289;-67
2022/01/28 06:32:40;;;;;;;10.65;6.82;;;4.50;99.90;;;;;;5077362;28;20215;-68
2022/01/28 06:35:08;;;;;;;11.43;6.97;;;4.60;99.90;;;;;;5077335;28;20268;-68
2022/01/28 06:37:37;;;;;;;9.82;7.20;;;4.60;99.90;;;;;;5077408;28;20210;-68
2022/01/28 06:40:05;;;;;;;10.38;7.00;;;4.60;99.90;;;;;;5076991;28;20675;-68
2022/01/28 06:42:33;;;;;;;9.00;6.60;;;4.70;99.90;;;;;;5077221;28;20202;-68
2022/01/28 06:45:00;;;;;;;12.40;7.90;;;4.70;99.90;;;;;;5077288;28;20223;-68
2022/01/28 06:47:27;;;;;;;11.98;7.88;;;4.70;99.90;;;;;;5077032;28;20209;-67
2022/01/28 06:49:54;;;;;;;10.45;7.25;;;4.70;99.90;;;;;;5076872;28;20213;-67
2022/01/28 06:52:20;;;;;;;13.68;7.75;;;4.70;99.90;;;;;;5076987;28;20199;-67
2022/01/28 06:54:47;;;;;;;21.45;12.27;;;4.60;99.90;;;;;;5076711;28;20227;-68
2022/01/28 06:57:14;;;;;;;12.35;8.43;;;4.60;99.90;;;;;;5077011;28;20198;-68
2022/01/28 06:59:43;;;;;;;11.60;7.68;;;4.60;99.90;;;;;;5076694;28;20195;-67
2022/01/28 07:02:10;;;;;;;10.45;7.63;;;4.60;99.90;;;;;;5077065;28;20260;-68
2022/01/28 07:04:37;;;;;;;9.38;7.03;;;4.50;99.90;;;;;;5076844;28;20310;-67
2022/01/28 07:07:05;;;;;;;9.40;6.63;;;4.50;99.90;;;;;;5077155;28;20614;-67
2022/01/28 07:09:34;;;;;;;12.43;7.43;;;4.40;99.90;;;;;;5076351;28;20223;-67
2022/01/28 07:12:00;;;;;;;16.45;8.50;;;4.40;99.90;;;;;;5076660;28;20586;-68
2022/01/28 07:14:27;;;;;;;10.32;7.00;;;4.40;99.90;;;;;;5076763;28;20313;-67
2022/01/28 07:16:56;;;;;;;8.93;5.85;;;4.40;99.90;;;;;;5076763;28;20289;-68
2022/01/28 07:19:22;;;;;;;9.98;7.75;;;4.40;99.90;;;;;;5076635;28;20210;-67
2022/01/28 07:21:49;;;;;;;12.48;7.85;;;4.40;99.90;;;;;;5076439;28;20202;-68
2022/01/28 07:24:16;;;;;;;10.55;7.70;;;4.40;99.90;;;;;;5076073;28;20223;-67
2022/01/28 07:26:43;;;;;;;13.10;8.20;;;4.30;99.90;;;;;;5076391;28;20206;-68
2022/01/28 07:29:11;;;;;;;11.85;8.15;;;4.40;99.90;;;;;;5075885;28;20227;-67
2022/01/28 07:31:38;;;;;;;9.93;7.35;;;4.40;99.90;;;;;;5076431;28;20230;-67
2022/01/28 07:34:07;;;;;;;9.60;5.07;;;4.40;99.90;;;;;;5076095;28;20226;-67
2022/01/28 07:36:34;;;;;;;11.63;8.23;;;4.40;99.90;;;;;;5076411;28;20206;-67
2022/01/28 07:39:00;;;;;;;10.30;7.15;;;4.40;99.90;;;;;;5076183;28;20206;-68
2022/01/28 07:41:27;;;;;;;11.35;7.65;;;4.50;99.90;;;;;;5075862;28;20682;-68
2022/01/28 07:43:54;;;;;;;9.38;6.78;;;4.50;99.90;;;;;;5076080;28;20227;-68
2022/01/28 07:46:21;;;;;;;14.88;8.00;;;4.60;99.90;;;;;;5076080;28;20206;-67
2022/01/28 07:48:48;;;;;;;13.23;7.78;;;4.60;99.90;;;;;;5075638;28;20250;-68
2022/01/28 07:51:16;;;;;;;10.35;7.68;;;4.70;99.90;;;;;;5075678;28;20546;-67
2022/01/28 07:53:43;;;;;;;11.20;7.38;;;4.70;99.90;;;;;;5075810;28;20225;-68
2022/01/28 07:56:11;;;;;;;10.13;6.90;;;4.80;99.90;;;;;;5075981;28;20225;-68
2022/01/28 07:58:38;;;;;;;10.18;6.50;;;4.90;99.90;;;;;;5076217;28;20210;-68
2022/01/28 08:01:05;;;;;;;11.13;7.50;;;4.90;99.90;;;;;;5075959;28;20209;-68
2022/01/28 08:03:32;;;;;;;9.63;7.22;;;5.00;99.90;;;;;;5076242;28;20199;-68
2022/01/28 08:05:59;;;;;;;10.27;7.70;;;5.00;99.90;;;;;;5076844;28;20294;-68
2022/01/28 08:08:27;;;;;;;13.25;7.30;;;5.00;99.90;;;;;;5075995;28;20244;-68
2022/01/28 08:10:54;;;;;;;9.93;7.45;;;5.00;99.90;;;;;;5075261;28;20207;-68
2022/01/28 08:13:21;;;;;;;11.40;6.70;;;5.00;99.90;;;;;;5075517;28;20206;-68
2022/01/28 08:15:49;;;;;;;10.32;7.45;;;5.00;99.90;;;;;;5075413;28;20211;-68
2022/01/28 08:18:16;;;;;;;10.85;6.82;;;5.00;99.90;;;;;;5075409;28;20303;-68
2022/01/28 08:20:46;;;;;;;10.32;7.03;;;5.00;99.90;;;;;;5075303;28;20206;-67
2022/01/28 08:23:13;;;;;;;9.68;6.80;;;5.10;99.90;;;;;;5075378;28;20720;-67
2022/01/28 08:25:41;;;;;;;13.77;6.93;;;5.10;99.90;;;;;;5075255;28;20584;-67
2022/01/28 08:28:08;;;;;;;11.57;7.00;;;5.20;99.90;;;;;;5075097;28;20250;-68
2022/01/28 08:30:38;;;;;;;9.70;6.93;;;5.20;99.90;;;;;;5074749;28;20206;-67
2022/01/28 08:33:06;;;;;;;8.50;6.15;;;5.20;99.90;;;;;;5075045;28;20203;-67
2022/01/28 08:35:37;;;;;;;10.60;6.60;;;5.30;99.90;;;;;;5074714;28;20313;-68
2022/01/28 08:38:12;;;;;;;11.85;6.45;;;5.30;99.90;;;;;;5074809;28;20222;-67
2022/01/28 08:40:39;;;;;;;8.80;5.60;;;5.40;99.90;;;;;;5074117;28;20293;-68
2022/01/28 08:43:07;;;;;;;8.77;6.63;;;5.40;99.90;;;;;;5074893;28;20203;-68
2022/01/28 08:45:34;;;;;;;8.77;6.53;;;5.50;99.90;;;;;;5075002;28;20309;-68
2022/01/28 08:48:01;;;;;;;14.07;7.07;;;5.50;99.90;;;;;;5074822;28;20205;-68
2022/01/28 08:50:27;;;;;;;8.55;6.28;;;5.50;99.90;;;;;;5074362;28;20242;-68
2022/01/28 08:52:54;;;;;;;8.10;6.32;;;5.50;99.90;;;;;;5075104;28;20210;-68
2022/01/28 08:55:21;;;;;;;8.57;6.05;;;5.60;99.90;;;;;;5074346;28;20705;-68
2022/01/28 08:57:48;;;;;;;10.85;6.28;;;5.60;99.90;;;;;;5074655;28;20207;-68
2022/01/28 09:00:18;;;;;;;9.00;6.22;;;5.60;99.90;;;;;;5074338;28;20301;-68
2022/01/28 09:02:45;;;;;;;8.40;6.28;;;5.70;99.90;;;;;;5074793;28;20252;-68
2022/01/28 09:05:12;;;;;;;8.18;4.60;;;5.70;99.90;;;;;;5074482;28;20225;-68
2022/01/28 09:07:39;;;;;;;9.65;5.85;;;5.70;99.90;;;;;;5074348;28;20209;-68
2022/01/28 09:10:17;;;;;;;7.30;5.82;;;5.70;99.90;;;;;;5074133;28;20313;-68
2022/01/28 09:12:49;;;;;;;8.63;5.57;;;5.80;99.90;;;;;;5074231;28;20716;-68
2022/01/28 09:15:18;;;;;;;9.73;6.38;;;5.80;99.90;;;;;;5074320;28;20219;-68
2022/01/28 09:17:45;;;;;;;6.55;4.78;;;5.80;99.90;;;;;;5074310;28;20253;-68
2022/01/28 09:20:12;;;;;;;7.55;4.63;;;5.80;99.90;;;;;;5073979;28;20198;-67
2022/01/28 09:22:38;;;;;;;11.25;5.30;;;5.90;99.90;;;;;;5073929;28;20669;-68
2022/01/28 09:25:06;;;;;;;5.57;5.03;;;5.90;99.90;;;;;;5074132;28;20218;-67
2022/01/28 09:27:33;;;;;;;7.53;4.85;;;6.00;99.90;;;;;;5074315;28;20218;-68
2022/01/28 09:30:00;;;;;;;7.22;4.75;;;6.00;99.90;;;;;;5073779;28;20218;-67
2022/01/28 09:32:28;;;;;;;8.85;5.25;;;6.00;99.90;;;;;;5073980;28;20293;-68
2022/01/28 09:34:55;;;;;;;7.18;5.40;;;6.00;99.90;;;;;;5073887;28;20233;-68
2022/01/28 09:37:22;;;;;;;7.13;5.20;;;6.10;99.90;;;;;;5074019;28;20298;-68
2022/01/28 09:39:49;;;;;;;8.57;5.00;;;6.20;99.90;;;;;;5073879;28;20199;-68
2022/01/28 09:42:20;;;;;;;6.95;4.43;;;6.10;99.90;;;;;;5074361;28;20545;-68
2022/01/28 09:44:47;;;;;;;5.63;4.38;;;6.20;99.90;;;;;;5074711;28;20692;-68
2022/01/28 09:47:15;;;;;;;6.68;3.72;;;6.30;99.90;;;;;;5074015;28;20203;-68
2022/01/28 09:49:43;;;;;;;7.03;4.13;;;6.50;99.90;;;;;;5073364;28;20222;-68
2022/01/28 09:52:12;;;;;;;6.00;4.50;;;6.60;99.90;;;;;;5073466;28;20198;-68
2022/01/28 09:54:43;;;;;;;4.78;3.70;;;6.70;99.90;;;;;;5074275;28;20229;-68
2022/01/28 09:57:10;;;;;;;4.30;3.67;;;6.80;99.90;;;;;;5073767;28;20256;-68
2022/01/28 09:59:37;;;;;;;5.57;3.35;;;6.80;99.90;;;;;;5073852;28;20716;-68
2022/01/28 10:02:05;;;;;;;5.07;3.55;;;6.90;99.90;;;;;;5073742;28;20199;-68
2022/01/28 10:04:32;;;;;;;3.90;3.35;;;7.10;99.90;;;;;;5073701;28;20309;-68
2022/01/28 10:07:10;;;;;;;13.45;8.70;;;7.00;99.90;;;;;;5073640;28;20237;-68
2022/01/28 10:09:37;;;;;;;6.63;5.15;;;7.10;99.90;;;;;;5073432;28;20222;-68
2022/01/28 10:12:17;;;;;;;4.50;3.13;;;7.10;99.90;;;;;;5073622;28;20214;-68
2022/01/28 10:15:01;;;;;;;5.45;3.15;;;7.20;99.90;;;;;;5073721;28;20232;-68
2022/01/28 10:17:52;;;;;;;5.85;3.17;;;7.20;99.90;;;;;;5073172;28;20215;-67
2022/01/28 10:20:19;;;;;;;6.15;3.08;;;7.20;99.90;;;;;;5073266;28;20227;-68
2022/01/28 10:22:55;;;;;;;4.57;2.60;;;7.20;99.90;;;;;;5073351;28;20203;-68
2022/01/28 10:25:27;;;;;;;3.80;2.65;;;7.10;99.90;;;;;;5073530;28;20226;-68
2022/01/28 10:27:59;;;;;;;5.32;2.83;;;7.10;99.90;;;;;;5073670;28;20615;-68
2022/01/28 10:30:26;;;;;;;4.57;2.75;;;7.20;99.90;;;;;;5073072;28;20229;-68
2022/01/28 10:33:11;;;;;;;3.38;2.35;;;7.30;99.90;;;;;;5073353;28;20199;-69
2022/01/28 10:35:39;;;;;;;5.35;2.63;;;7.50;99.90;;;;;;5073247;28;20223;-68
2022/01/28 10:38:07;;;;;;;6.60;2.50;;;7.60;99.90;;;;;;5073490;28;20202;-68
2022/01/28 10:40:35;;;;;;;5.03;2.70;;;7.60;99.90;;;;;;5072970;28;20210;-68
2022/01/28 10:43:01;;;;;;;4.15;3.00;;;7.70;99.90;;;;;;5073104;28;20209;-68
2022/01/28 10:45:31;;;;;;;5.32;4.28;;;7.80;99.90;;;;;;5073281;28;20645;-68
2022/01/28 10:48:01;;;;;;;9.93;5.90;;;7.70;99.90;;;;;;5073096;28;20207;-68
2022/01/28 10:50:30;;;;;;;6.78;4.82;;;7.70;99.90;;;;;;5072767;28;20272;-68
2022/01/28 10:53:08;;;;;;;7.43;5.50;;;7.80;99.90;;;;;;5063831;28;20211;-68
2022/01/28 10:55:37;;;;;;;3.42;2.70;;;7.90;99.90;;;;;;5058325;28;20234;-68
2022/01/28 10:58:06;;;;;;;5.93;2.78;;;7.80;99.90;;;;;;5051939;28;20215;-68
2022/01/28 11:00:35;;;;;;;4.72;2.40;;;7.90;99.90;;;;;;5051734;28;20565;-68
2022/01/28 11:03:04;;;;;;;4.95;2.80;;;7.90;99.90;;;;;;5053157;28;20516;-67
2022/01/28 11:05:33;;;;;;;3.38;2.20;;;7.90;99.90;;;;;;5055571;28;20227;-67
2022/01/28 11:08:01;;;;;;;5.40;3.08;;;7.90;99.90;;;;;;5055456;28;20207;-67
2022/01/28 11:10:29;;;;;;;2.90;2.55;;;7.90;99.90;;;;;;5056256;28;20229;-67
2022/01/28 11:12:59;;;;;;;4.03;2.55;;;7.90;99.90;;;;;;5055443;28;20216;-67
2022/01/28 11:15:27;;;;;;;5.72;2.22;;;7.80;99.90;;;;;;5055065;28;20234;-67
2022/01/28 11:17:54;;;;;;;5.15;1.88;;;7.80;99.90;;;;;;5055322;28;20222;-67
2022/01/28 11:20:24;;;;;;;3.67;2.65;;;7.70;99.90;;;;;;5055563;28;20741;-67
2022/01/28 11:23:00;;;;;;;1.92;1.15;;;7.60;99.90;;;;;;5055796;28;20235;-67
2022/01/28 11:25:50;;;;;;;4.70;2.22;;;7.50;99.90;;;;;;5055659;28;20229;-67
2022/01/28 11:28:16;;;;;;;4.03;2.50;;;7.40;99.90;;;;;;5055409;28;20733;-67
2022/01/28 11:30:48;;;;;;;3.67;2.63;;;7.40;99.90;;;;;;5055305;28;20328;-67
2022/01/28 11:33:16;;;;;;;5.05;2.60;;;7.70;99.90;;;;;;5055316;28;20204;-67
2022/01/28 11:36:01;;;;;;;6.15;2.60;;;7.90;99.50;;;;;;5055135;28;20642;-67
2022/01/28 11:38:43;;;;;;;3.35;2.20;;;7.90;99.20;;;;;;5054981;28;20218;-67
2022/01/28 11:41:15;;;;;;;6.05;2.75;;;7.90;99.10;;;;;;5054893;28;20204;-67
2022/01/28 11:43:47;;;;;;;6.85;2.22;;;7.80;99.00;;;;;;5054721;28;20210;-67
2022/01/28 11:46:20;;;;;;;5.80;2.53;;;7.80;99.00;;;;;;5055322;28;20207;-67
2022/01/28 11:49:26;;;;;;;4.50;2.35;;;7.70;98.10;;;;;;5054882;28;20298;-67
2022/01/28 11:51:53;;;;;;;3.42;2.40;;;7.60;98.90;;;;;;5054660;28;20184;-69
2022/01/28 11:54:23;;;;;;;2.20;2.10;;;7.70;98.60;;;;;;5054679;28;20227;-68
2022/01/28 11:57:13;;;;;;;4.43;2.28;;;7.70;98.50;;;;;;5055102;28;20204;-69
2022/01/28 11:59:40;;;;;;;3.35;2.60;;;7.70;98.90;;;;;;5046228;28;20206;-69
2022/01/28 12:02:09;;;;;;;4.05;2.63;;;7.70;98.80;;;;;;5054627;28;20213;-68
2022/01/28 12:04:37;;;;;;;4.13;2.50;;;7.70;99.10;;;;;;5054706;28;20598;-68
2022/01/28 12:07:06;;;;;;;3.63;2.13;;;7.60;99.20;;;;;;5055475;28;20699;-68
2022/01/28 12:09:35;;;;;;;5.10;2.50;;;7.60;99.40;;;;;;5055405;28;20309;-69
2022/01/28 12:12:03;;;;;;;3.58;2.30;;;7.50;99.60;;;;;;5055331;28;20199;-68
2022/01/28 12:15:07;;;;;;;3.85;2.47;;;7.30;99.90;;;;;;5054163;28;20314;-69
2022/01/28 12:17:49;;;;;;;4.28;3.20;;;7.30;99.90;;;;;;4993669;28;20252;-69
2022/01/28 12:20:46;;;;;;;4.85;3.10;;;7.30;99.90;;;;;;5049851;28;20199;-69
2022/01/28 12:23:38;;;;;;;6.03;3.05;;;7.20;99.90;;;;;;4994055;28;20201;-69
2022/01/28 12:26:05;;;;;;;4.15;2.80;;;7.10;99.60;;;;;;5051697;28;20239;-69
2022/01/28 12:28:49;;;;;;;3.20;2.35;;;7.20;99.90;;;;;;5055232;28;20199;-69
2022/01/28 12:31:22;;;;;;;5.90;3.15;;;7.50;99.90;;;;;;5055525;28;20234;-69
2022/01/28 12:33:51;;;;;;;4.00;2.10;;;7.70;98.70;;;;;;5055255;28;20701;-69
2022/01/28 12:36:21;;;;;;;4.18;3.03;;;8.20;98.30;;;;;;5054933;28;20199;-69
2022/01/28 12:38:59;;;;;;;5.22;3.97;;;8.20;97.80;;;;;;5055018;28;20207;-69
2022/01/28 12:41:29;;;;;;;4.53;3.20;;;8.20;98.00;;;;;;5054638;28;20199;-69
2022/01/28 12:43:56;;;;;;;8.82;3.05;;;8.20;97.70;;;;;;5054866;28;20314;-70
2022/01/28 12:46:28;;;;;;;8.50;3.50;;;8.60;97.60;;;;;;5054596;28;20214;-70
2022/01/28 12:48:58;;;;;;;5.03;3.22;;;8.80;97.00;;;;;;5055299;28;20286;-70
2022/01/28 12:51:25;;;;;;;3.70;3.30;;;8.70;96.70;;;;;;5054781;28;20301;-69
2022/01/28 12:53:55;;;;;;;4.70;3.50;;;8.60;96.80;;;;;;5054633;28;20230;-70
2022/01/28 12:56:30;;;;;;;6.10;3.92;;;8.50;97.00;;;;;;5054629;28;20565;-69
2022/01/28 12:58:58;;;;;;;2.50;2.30;;;8.40;97.60;;;;;;5054435;28;20290;-69
2022/01/28 13:01:26;;;;;;;5.80;4.35;;;8.20;98.00;;;;;;5054148;28;20210;-69
2022/01/28 13:04:05;;;;;;;5.43;3.80;;;8.10;98.90;;;;;;5054037;28;20228;-69
2022/01/28 13:06:43;;;;;;;6.05;5.40;;;8.10;99.50;;;;;;5054502;28;20198;-69
2022/01/28 13:09:14;;;;;;;8.07;5.03;;;8.00;99.70;;;;;;5054397;28;20203;-70
2022/01/28 13:11:43;;;;;;;6.85;3.97;;;7.70;99.90;;;;;;5053932;28;20226;-69
2022/01/28 13:14:10;;;;;;;7.93;4.95;;;7.40;99.90;;;;;;5053955;28;20223;-69
2022/01/28 13:16:40;;;;;;;6.93;4.50;;;7.60;99.90;;;;;;5054063;28;20208;-69
2022/01/28 13:19:09;;;;;;;8.43;5.93;;;7.90;99.90;;;;;;5054436;28;20230;-70
2022/01/28 13:21:36;;;;;;;6.55;4.97;;;7.90;99.90;;;;;;5054033;28;20594;-69
2022/01/28 13:24:08;;;;;;;8.57;6.35;;;7.80;99.90;;;;;;5053973;28;20245;-69
2022/01/28 13:26:36;;;;;;;10.98;6.35;;;7.70;99.90;;;;;;5053659;28;20207;-69
2022/01/28 13:29:08;;;;;;;8.45;6.30;;;7.60;99.90;;;;;;5054037;28;20208;-69
2022/01/28 13:31:35;;;;;;;9.45;6.75;;;7.40;99.90;;;;;;5053644;28;20239;-69
2022/01/28 13:34:05;;;;;;;8.02;5.80;;;7.30;99.90;;;;;;5053972;28;20227;-69
2022/01/28 13:36:46;;;;;;;8.88;6.32;;;7.30;99.90;;;;;;5053482;28;20282;-69
2022/01/28 13:39:18;;;;;;;7.63;5.95;;;7.30;99.90;;;;;;5053872;28;20290;-69
2022/01/28 13:41:46;;;;;;;9.55;6.55;;;7.20;99.90;;;;;;5053433;28;20291;-69
2022/01/28 13:44:30;;;;;;;10.30;6.47;;;7.20;99.90;;;;;;5053426;28;20289;-69
2022/01/28 13:46:58;;;;;;;6.78;4.45;;;7.20;99.90;;;;;;5053687;28;20195;-69
2022/01/28 13:49:35;;;;;;;7.25;5.93;;;7.20;99.90;;;;;;5053649;28;20286;-69
2022/01/28 13:52:11;;;;;;;7.70;4.82;;;7.20;99.90;;;;;;5053417;28;20306;-69
2022/01/28 13:54:38;;;;;;;9.13;6.03;;;7.20;99.90;;;;;;5053513;28;20232;-69
2022/01/28 13:57:07;;;;;;;10.80;6.93;;;7.10;99.90;;;;;;5053613;28;20203;-69
2022/01/28 13:59:35;;;;;;;9.07;6.18;;;7.10;99.90;;;;;;5053463;28;20290;-69